Oakham, United Kingdom
Current Conditions -  °F | °C
As of 12:50 PM on Monday 22 Dec 2014 (Local Time) from EGXT Reporting Station
Broken Clouds Broken Clouds  
Wind Chill: 55°   Ceiling: 1900
Heat Index: 55°   Visibility: 6mi
Dew Point: 50°   Wind: 24mph
Humidity: 82%   Direction: 240°WSW
Pressure: 29.88"   Gusts: 36mph
Location:  52.67°N, 0.73°W
Report Text: EGXT 221250Z AUTO 24021G31KT 9999 BKN019/// 13/10 Q1012
Loading
Personal Weather Stations






























Interactive Weather Map New forecast layout! Learn more

10-Day Weather Forecast

Advertisements
Track Severe Weather on mobile